メインページ
METAR-TAF:

METAR-TAF

空港 :

レゾリュート, ヌナブト準州, カナダ

緯度: 74-43N, 経度: 094-59W, 海抜: 67m

現時点の気象観測

当レポートは59分前の23:00(UTC)に作成
の風 6kt
気温 -5°C
湿度 86%
気圧 1006 hPa
視程: 24.1km
高度900ftの千切れ雲あり
高度1200ftの曇り

METAR: CYRB 242300Z 08006KT 15SM BKN009 OVC012 M05/M07 A2971 RMK ST6SC2 SLP070

時間: 18:59 (23:59 UTC)

予報

当レポートは20分前の23:39(UTC)に作成
予報は25日の 00時(UTC)から 25日の 24時(UTC)まで有効
変向風 3kt
視程: 10km
高度900ftの千切れ雲あり
高度1200ftの曇り
25日の 00時(UTC)から 25日の 04時(UTC)まで一時的に
視程: 6.4km
高度900ftの雲は散在している
高度1200ftの曇り
小雪
25日の 0400時(UTC)から
西の風 10kt
視程: 10km
高度800ftの雲は散在している
高度1500ftの曇り
25日の 04時(UTC)から 25日の 09時(UTC)まで一時的に
視程: 3.2km
高度800ftの千切れ雲あり
高度1500ftの曇り
小雪
25日の 0900時(UTC)から
西/南西の風 8kt
視程: 9.7km
高度500ftの雲は散在している
高度1000ftの曇り
小雪
25日の 09時(UTC)から 25日の 20時(UTC)まで一時的に
視程: 1.6km
高度500ftの曇り
弱いにわか雪
25日の 2000時(UTC)から
西の風 10kt
視程: 4.8km
高度700ftの千切れ雲あり
高度2000ftの曇り
小雪

TAF: CYRB 242339Z 2500/2524 VRB03KT P6SM BKN009 OVC012 TEMPO 2500/2504 4SM -SN SCT009 OVC012 FM250400 26010KT P6SM SCT008 OVC015 TEMPO 2504/2509 2SM -SN BKN008 OVC015 FM250900 24008KT 6SM -SN SCT005 OVC010 TEMPO 2509/2520 1SM -SHSN OVC005 FM252000 27010KT 3SM -SN BKN007 OVC020 RMK NXT FCST BY 250600Z

4,000以上の空港の気象観測と天気予報(METAR報とTAF報)

利用可能な観測所は地図上に黄色い丸と赤い丸で示す。

丸の上にカーソルを重ねると観測所名を参照できる。

次にクリックすると気象観測と天気予報を参照できる。

マップの切り替え:黒色「×」印の緑ボタンをクリックして拡大、「-」印の緑ボタンをクリックして縮小、緑色の三角印をクリックして隣りの地図に切り替え


METAR-TAF: